Flight Track Log - Related Links

Times and Time Zones

All times are in EDT time to prevent confusion due to time zone crossing. See the CSJ405 flight status page for this flight to view local times or setup timezone preferences in your user account.

Time Position Orientation Groundspeed Altitude Reporting Facility
EDT Latitude Longitude Course Direction KTS MPH feet Rate Location/Type
Mon 09:43:48 PM 43.1294 -77.6417 62° Northeast 104 120 1,400  Level Cleveland Center
Mon 09:44:49 PM 43.1508 -77.6692 317° Northwest 127 146 2,300 843 Climbing Cleveland Center
Mon 09:45:49 PM 43.1583 -77.7172 282° West 134 154 3,100 793 Climbing Cleveland Center
Mon 09:46:50 PM 43.1617 -77.7683 275° West 134 154 3,900 496 Climbing Cleveland Center
Mon 09:47:50 PM 43.1694 -77.8250 281° West 153 176 4,100 50 Climbing Cleveland Center
Mon 09:48:51 PM 43.1728 -77.8875 274° West 172 198 4,000 -49 Descending Cleveland Center
Mon 09:49:52 PM 43.1764 -77.9556 274° West 166 191 4,000  Level Cleveland Center
Mon 09:50:52 PM 43.1842 -78.0208 279° West 171 197 4,000  Level Cleveland Center
Mon 09:52:34 PM 43.1833 -78.1167 269° West 167 192 4,000  Level Buffalo TRACON
Mon 09:53:16 PM 43.1667 -78.1500 236° Southwest 170 196 4,000  Level Toronto Center
Mon 09:54:16 PM 43.1667 -78.2167 270° West 170 196 4,000  Level Toronto Center
Mon 09:55:16 PM 43.1667 -78.2667 270° West 170 196 4,000 50 Level Toronto Center
Mon 09:56:16 PM 43.1667 -78.3333 270° West 170 196 4,100  Climbing Toronto Center
Mon 09:57:16 PM 43.1667 -78.4000 270° West 180 207 4,000 -50 Descending Toronto Center
Mon 09:58:16 PM 43.1667 -78.4667 270° West 170 196 4,000 50 Level Toronto Center
Mon 09:59:16 PM 43.1833 -78.5333 289° West 170 196 4,100  Climbing Toronto Center
Mon 10:01:16 PM 43.1833 -78.6667 270° West 170 196 4,000 -33 Descending Toronto Center
Mon 10:02:16 PM 43.1833 -78.7333 270° West 180 207 4,000  Level Toronto Center
Mon 10:04:16 PM 43.1667 -78.8833 261° West 170 196 4,000 33 Level Toronto Center
Mon 10:05:16 PM 43.1667 -78.9167 270° West 170 196 4,100 50 Climbing Toronto Center
Mon 10:06:16 PM 43.1667 -79.0000 270° West 180 207 4,100  Level Toronto Center
Mon 10:08:16 PM 43.1667 -79.1333 270° West 170 196 4,100  Level Toronto Center
Mon 10:09:16 PM 43.1667 -79.2000 270° West 170 196 4,100  Level Toronto Center
Mon 10:10:16 PM 43.1667 -79.2667 270° West 170 196 4,100 -50 Level Toronto Center
Mon 10:11:16 PM 43.1667 -79.3167 270° West 170 196 4,000  Descending Toronto Center
Mon 10:13:16 PM 43.1667 -79.4500 270° West 170 196 4,100 33 Climbing Toronto Center
Mon 10:14:16 PM 43.1667 -79.5167 270° West 170 196 4,100 -267 Level Toronto Center
Mon 10:16:16 PM 43.1667 -79.6500 270° West 180 207 3,300 -433 Descending Toronto Center
Mon 10:17:16 PM 43.1500 -79.7167 251° West 190 219 2,800 -350 Descending Toronto Center
Mon 10:18:16 PM 43.1500 -79.8000 270° West 180 207 2,600 -600 Descending Toronto Center
Mon 10:19:16 PM 43.1500 -79.8333 270° West 170 196 1,600 -800 Descending Toronto Center
Mon 10:20:16 PM 43.1667 -79.8833 295° West 120 138 1,000 -400 Descending Toronto Center
Mon 10:21:16 PM 43.1667 -79.9000 270° West 70 81 800 -200 Descending Toronto Center

Login

Don't have an account? Register now (free) for customized features, flight alerts, and more!